createdAt,value
2022-09-09T00:03:01.816Z,100449.91
2022-09-09T00:08:18.720Z,100453.83
2022-09-09T00:13:29.168Z,100453.21
2022-09-09T00:18:53.464Z,100449.64
2022-09-09T00:24:00.138Z,100440.88
2022-09-09T00:29:23.165Z,100441.58
2022-09-09T00:34:30.566Z,100434.02
2022-09-09T00:39:42.743Z,100433.54
2022-09-09T00:45:02.333Z,100425.89
2022-09-09T00:50:25.659Z,100421.08
2022-09-09T00:55:41.554Z,100419.27
2022-09-09T01:00:52.113Z,100415.27
2022-09-09T01:06:17.063Z,100415.45
2022-09-09T01:11:26.809Z,100411.12
2022-09-09T01:16:35.522Z,100414.08
2022-09-09T01:21:49.573Z,100417.02
2022-09-09T01:26:59.236Z,100420.52
2022-09-09T01:32:44.128Z,100416.66
2022-09-09T01:37:51.461Z,100417.52
2022-09-09T01:42:58.481Z,100406.13
2022-09-09T01:48:04.907Z,100406.40
2022-09-09T01:53:26.571Z,100408.88
2022-09-09T01:58:40.442Z,100402.11
2022-09-09T02:03:52.923Z,100400.52
2022-09-09T02:09:02.109Z,100404.10
2022-09-09T02:14:13.396Z,100404.05
2022-09-09T02:19:27.439Z,100412.12
2022-09-09T02:25:00.575Z,100403.72
2022-09-09T02:30:10.629Z,100395.61
2022-09-09T02:35:27.534Z,100400.86
2022-09-09T02:40:33.589Z,100395.34
2022-09-09T02:45:50.742Z,100396.08
2022-09-09T02:51:06.093Z,100400.27
2022-09-09T02:56:17.873Z,100396.52
2022-09-09T03:01:25.265Z,100404.32
2022-09-09T03:06:31.765Z,100406.30
2022-09-09T03:11:45.134Z,100413.27
2022-09-09T03:16:51.272Z,100411.32
2022-09-09T03:21:57.167Z,100406.56
2022-09-09T03:27:03.270Z,100396.44
2022-09-09T03:32:11.675Z,100389.21
2022-09-09T03:37:18.737Z,100384.82
2022-09-09T03:42:25.155Z,100383.90
2022-09-09T03:47:32.624Z,100384.30
2022-09-09T03:52:43.150Z,100380.90
2022-09-09T03:57:54.198Z,100384.02
2022-09-09T04:03:00.062Z,100392.19
2022-09-09T04:08:05.809Z,100394.48
2022-09-09T04:13:13.463Z,100400.60
2022-09-09T04:18:20.371Z,100399.15
2022-09-09T04:23:30.409Z,100394.48
2022-09-09T04:28:38.014Z,100397.06
2022-09-09T04:33:48.695Z,100394.11
2022-09-09T04:38:55.295Z,100396.43
2022-09-09T04:44:01.789Z,100391.20
2022-09-09T04:49:09.223Z,100390.70
2022-09-09T04:54:17.898Z,100395.67
2022-09-09T04:59:24.256Z,100400.71
2022-09-09T05:04:34.116Z,100409.91
2022-09-09T05:09:40.087Z,100412.10
2022-09-09T05:14:46.523Z,100404.59
2022-09-09T05:19:52.527Z,100411.67
2022-09-09T05:24:59.496Z,100410.88
2022-09-09T05:30:06.617Z,100408.77
2022-09-09T05:35:14.638Z,100409.80
2022-09-09T05:40:22.592Z,100412.95
2022-09-09T05:45:28.893Z,100416.52
2022-09-09T05:50:34.857Z,100415.13
2022-09-09T05:55:40.720Z,100412.92
2022-09-09T06:00:47.306Z,100412.31
2022-09-09T06:06:01.790Z,100414.80
2022-09-09T06:11:09.353Z,100419.01
2022-09-09T06:16:19.316Z,100422.58
2022-09-09T06:21:27.182Z,100429.65
2022-09-09T06:26:35.438Z,100434.25
2022-09-09T06:31:42.481Z,100435.19
2022-09-09T06:37:00.958Z,100443.42
2022-09-09T06:42:17.497Z,100445.59
2022-09-09T06:47:31.163Z,100440.95
2022-09-09T06:52:37.884Z,100445.05
2022-09-09T06:57:44.366Z,100445.36
2022-09-09T07:02:56.534Z,100447.90
2022-09-09T07:08:03.465Z,100454.30
2022-09-09T07:13:10.928Z,100459.27
2022-09-09T07:18:16.888Z,100460.56
2022-09-09T07:23:23.423Z,100460.73
2022-09-09T07:28:31.617Z,100468.70
2022-09-09T07:33:38.060Z,100472.88
2022-09-09T07:38:48.898Z,100479.35
2022-09-09T07:43:55.818Z,100480.21
2022-09-09T07:49:03.231Z,100478.58
2022-09-09T07:54:13.910Z,100481.62
2022-09-09T07:59:21.672Z,100483.94
2022-09-09T08:04:29.159Z,100489.29
2022-09-09T08:10:09.158Z,100495.45
2022-09-09T08:15:16.623Z,100494.56
2022-09-09T08:20:24.234Z,100498.73
2022-09-09T08:25:30.971Z,100502.14
2022-09-09T08:30:36.892Z,100508.61
2022-09-09T08:35:53.801Z,100510.42
2022-09-09T08:41:14.273Z,100514.20
2022-09-09T08:46:26.736Z,100518.13
2022-09-09T08:51:34.566Z,100519.70
2022-09-09T08:56:40.851Z,100519.08
2022-09-09T09:02:03.067Z,100527.20
2022-09-09T09:07:32.690Z,100530.09
2022-09-09T09:12:44.584Z,100522.41
2022-09-09T09:17:52.297Z,100528.50
2022-09-09T09:23:04.581Z,100534.30
2022-09-09T09:28:20.327Z,100539.59
2022-09-09T09:33:32.917Z,100546.73
2022-09-09T09:44:23.313Z,100547.42
2022-09-09T09:49:29.397Z,100550.26
2022-09-09T09:54:38.966Z,100555.82
2022-09-09T09:59:46.734Z,100554.52
2022-09-09T10:05:07.537Z,100555.27
2022-09-09T10:10:21.093Z,100550.70
2022-09-09T10:15:37.964Z,100547.84
2022-09-09T10:20:55.298Z,100547.20
2022-09-09T10:26:18.402Z,100556.27
2022-09-09T10:31:35.046Z,100562.19
2022-09-09T10:36:45.352Z,100570.96
2022-09-09T10:42:01.023Z,100579.43
2022-09-09T10:47:37.012Z,100584.82
2022-09-09T10:52:52.045Z,100601.27
2022-09-09T10:58:01.810Z,100606.73
2022-09-09T11:03:14.419Z,100614.92
2022-09-09T11:13:36.500Z,100619.81
2022-09-09T11:18:44.107Z,100621.21
2022-09-09T11:23:55.701Z,100626.94
2022-09-09T11:29:34.416Z,100625.89
2022-09-09T11:34:57.631Z,100628.94
2022-09-09T11:40:20.312Z,100628.89
2022-09-09T11:45:32.017Z,100631.66
2022-09-09T11:50:41.162Z,100630.91
2022-09-09T11:55:47.354Z,100624.79
2022-09-09T12:08:07.438Z,100615.67
2022-09-09T12:13:21.240Z,100623.08
2022-09-09T12:18:51.665Z,100621.13
2022-09-09T12:24:07.893Z,100629.48
2022-09-09T12:29:45.522Z,100631.75
2022-09-09T12:41:41.949Z,100636.81
2022-09-09T12:46:49.426Z,100637.23
2022-09-09T12:51:55.369Z,100630.13
2022-09-09T12:57:02.386Z,100628.58
2022-09-09T13:02:21.586Z,100623.98
2022-09-09T13:07:27.499Z,100616.41
2022-09-09T13:12:33.614Z,100613.38
2022-09-09T13:17:39.772Z,100624.39
2022-09-09T13:22:45.650Z,100625.09
2022-09-09T13:28:03.828Z,100619.45
2022-09-09T13:33:24.124Z,100615.77
2022-09-09T13:38:32.566Z,100612.33
2022-09-09T13:43:44.641Z,100609.95
2022-09-09T13:48:58.538Z,100604.30
2022-09-09T13:54:07.115Z,100607.27
2022-09-09T13:59:15.385Z,100610.15
2022-09-09T14:04:24.488Z,100614.21
2022-09-09T14:09:30.602Z,100621.85
2022-09-09T14:14:37.184Z,100625.48
2022-09-09T14:19:43.905Z,100629.56
2022-09-09T14:24:50.209Z,100628.89
2022-09-09T14:29:56.311Z,100633.08
2022-09-09T14:35:02.549Z,100631.23
2022-09-09T14:40:09.768Z,100638.79
2022-09-09T14:45:15.978Z,100642.34
2022-09-09T14:50:22.873Z,100631.23
2022-09-09T14:55:30.251Z,100622.54
2022-09-09T15:00:37.269Z,100627.52
2022-09-09T15:05:44.000Z,100642.82
2022-09-09T15:10:51.177Z,100641.86
2022-09-09T15:15:58.107Z,100634.51
2022-09-09T15:21:05.928Z,100631.17
2022-09-09T15:26:15.032Z,100630.16
2022-09-09T15:31:23.121Z,100632.14
2022-09-09T15:36:31.186Z,100635.92
2022-09-09T15:41:37.224Z,100639.79
2022-09-09T15:46:45.557Z,100651.63
2022-09-09T15:51:54.445Z,100650.94
2022-09-09T15:57:01.865Z,100653.75
2022-09-09T16:02:08.083Z,100647.66
2022-09-09T16:07:14.573Z,100648.46
2022-09-09T16:12:20.605Z,100649.07
2022-09-09T16:17:26.651Z,100637.54
2022-09-09T16:22:32.716Z,100637.60
2022-09-09T16:27:38.624Z,100641.48
2022-09-09T16:32:44.475Z,100632.40
2022-09-09T16:37:50.218Z,100637.90
2022-09-09T16:42:56.471Z,100642.55
2022-09-09T16:48:02.660Z,100634.18
2022-09-09T16:53:09.892Z,100634.10
2022-09-09T16:58:15.632Z,100631.73
2022-09-09T17:03:21.935Z,100628.52
2022-09-09T17:08:28.022Z,100626.38
2022-09-09T17:13:34.181Z,100630.05
2022-09-09T17:18:41.103Z,100637.82
2022-09-09T17:23:47.890Z,100641.06
2022-09-09T17:28:59.117Z,100645.27
2022-09-09T17:34:06.043Z,100655.30
2022-09-09T17:39:12.004Z,100660.16
2022-09-09T17:44:20.240Z,100667.00
2022-09-09T17:49:26.011Z,100671.33
2022-09-09T17:54:33.899Z,100673.79
2022-09-09T17:59:39.966Z,100675.48
2022-09-09T18:04:47.325Z,100666.25
2022-09-09T18:09:53.419Z,100669.73
2022-09-09T18:15:03.795Z,100680.29
2022-09-09T18:20:11.162Z,100689.83
2022-09-09T18:25:17.411Z,100693.12
2022-09-09T18:30:23.635Z,100696.42
2022-09-09T18:35:30.143Z,100702.94
2022-09-09T18:40:35.968Z,100696.71
2022-09-09T18:45:42.257Z,100699.27
2022-09-09T18:50:48.409Z,100704.89
2022-09-09T18:56:02.157Z,100704.86
2022-09-09T19:01:12.633Z,100699.73
2022-09-09T19:06:20.305Z,100704.91
2022-09-09T19:11:27.981Z,100706.62
2022-09-09T19:16:35.525Z,100707.67
2022-09-09T19:21:43.532Z,100703.69
2022-09-09T19:26:52.176Z,100701.00
2022-09-09T19:37:26.629Z,100704.06
2022-09-09T19:42:32.958Z,100701.44
2022-09-09T19:47:39.194Z,100707.94
2022-09-09T19:52:44.995Z,100708.09
2022-09-09T19:57:51.125Z,100701.05
2022-09-09T20:03:18.060Z,100702.42
2022-09-09T20:08:27.396Z,100702.77
2022-09-09T20:13:35.317Z,100694.88
2022-09-09T20:18:43.120Z,100692.68
2022-09-09T20:23:50.114Z,100693.39
2022-09-09T20:28:56.577Z,100693.56
2022-09-09T20:34:04.124Z,100689.98
2022-09-09T20:39:12.341Z,100694.27
2022-09-09T20:44:19.950Z,100696.59
2022-09-09T20:49:26.138Z,100699.20
2022-09-09T20:54:32.197Z,100705.42
2022-09-09T20:59:38.437Z,100706.81
2022-09-09T21:04:47.745Z,100699.55
2022-09-09T21:09:53.862Z,100707.52
2022-09-09T21:15:00.760Z,100707.79
2022-09-09T21:20:08.798Z,100717.29
2022-09-09T21:25:15.433Z,100720.63
2022-09-09T21:30:28.680Z,100716.78
2022-09-09T21:35:41.294Z,100722.38
2022-09-09T21:40:51.543Z,100725.34
2022-09-09T21:45:58.301Z,100719.97
2022-09-09T21:51:07.919Z,100723.17
2022-09-09T21:56:17.273Z,100720.30
2022-09-09T22:01:24.906Z,100716.71
2022-09-09T22:06:31.825Z,100711.55
2022-09-09T22:11:38.254Z,100716.48
2022-09-09T22:16:44.421Z,100716.25
2022-09-09T22:21:50.891Z,100718.88
2022-09-09T22:26:57.114Z,100715.71
2022-09-09T22:32:03.449Z,100715.84
2022-09-09T22:37:10.055Z,100716.08
2022-09-09T22:42:16.059Z,100713.05
2022-09-09T22:47:22.197Z,100712.89
2022-09-09T22:52:31.006Z,100712.08
2022-09-09T22:57:37.365Z,100706.77
2022-09-09T23:02:43.561Z,100704.20
2022-09-09T23:07:50.217Z,100693.20
2022-09-09T23:12:56.670Z,100687.91
2022-09-09T23:18:03.047Z,100688.59
2022-09-09T23:23:11.622Z,100686.29
2022-09-09T23:28:17.725Z,100679.10
2022-09-09T23:33:24.335Z,100674.88
2022-09-09T23:38:30.413Z,100676.82
2022-09-09T23:43:39.574Z,100678.08
2022-09-09T23:48:45.831Z,100674.41
2022-09-09T23:53:53.954Z,100672.94
2022-09-09T23:59:00.429Z,100674.49
